createdAt,value
2019-04-30T00:01:18.932Z,3.27
2019-04-30T00:03:55.814Z,3.05
2019-04-30T00:06:27.413Z,2.98
2019-04-30T00:08:57.857Z,3.05
2019-04-30T00:11:28.429Z,2.98
2019-04-30T00:13:59.091Z,2.75
2019-04-30T00:16:31.100Z,3.00
2019-04-30T00:19:01.921Z,2.77
2019-04-30T00:21:32.458Z,3.08
2019-04-30T00:24:06.242Z,2.80
2019-04-30T00:26:35.558Z,3.00
2019-04-30T00:29:06.230Z,3.15
2019-04-30T00:31:36.830Z,2.62
2019-04-30T00:34:07.396Z,3.30
2019-04-30T00:36:39.106Z,2.92
2019-04-30T00:39:13.334Z,2.77
2019-04-30T00:41:44.116Z,2.52
2019-04-30T00:44:15.262Z,3.33
2019-04-30T00:46:47.920Z,2.90
2019-04-30T00:49:22.895Z,2.70
2019-04-30T00:51:54.727Z,3.30
2019-04-30T00:54:29.302Z,2.98
2019-04-30T00:56:57.482Z,3.17
2019-04-30T00:59:27.382Z,2.67
2019-04-30T01:02:27.654Z,2.67
2019-04-30T01:04:52.852Z,3.12
2019-04-30T01:07:23.558Z,3.10
2019-04-30T01:09:55.293Z,3.08
2019-04-30T01:12:30.970Z,2.98
2019-04-30T01:14:59.021Z,3.10
2019-04-30T01:17:30.648Z,2.50
2019-04-30T01:20:01.755Z,3.08
2019-04-30T01:22:35.192Z,2.70
2019-04-30T01:25:08.937Z,3.00
2019-04-30T01:27:45.461Z,2.62
2019-04-30T01:30:13.224Z,2.98
2019-04-30T01:32:44.399Z,2.67
2019-04-30T01:35:14.920Z,2.72
2019-04-30T01:37:45.459Z,2.60
2019-04-30T01:40:16.313Z,2.80
2019-04-30T01:42:48.483Z,2.93
2019-04-30T01:45:23.210Z,2.93
2019-04-30T01:47:51.414Z,2.90
2019-04-30T01:50:22.050Z,2.60
2019-04-30T01:52:55.813Z,2.70
2019-04-30T01:55:34.989Z,2.85
2019-04-30T01:58:24.509Z,2.67
2019-04-30T02:00:59.396Z,2.60
2019-04-30T02:03:30.113Z,2.60
2019-04-30T02:06:00.722Z,2.75
2019-04-30T02:08:31.376Z,2.57
2019-04-30T02:11:02.000Z,2.62
2019-04-30T02:13:34.548Z,2.72
2019-04-30T02:16:06.250Z,2.50
2019-04-30T02:18:36.756Z,2.50
2019-04-30T02:21:08.984Z,2.70
2019-04-30T02:23:42.592Z,2.92
2019-04-30T02:26:13.230Z,2.65
2019-04-30T02:28:43.785Z,2.57
2019-04-30T02:31:14.345Z,2.98
2019-04-30T02:33:50.107Z,2.50
2019-04-30T02:36:46.066Z,3.20
2019-04-30T02:39:20.327Z,2.98
2019-04-30T02:41:51.860Z,2.45
2019-04-30T02:44:24.353Z,2.90
2019-04-30T02:47:00.377Z,3.00
2019-04-30T02:49:32.277Z,2.40
2019-04-30T02:52:05.358Z,2.65
2019-04-30T02:54:39.645Z,2.60
2019-04-30T02:57:12.406Z,2.80
2019-04-30T03:00:01.255Z,3.07
2019-04-30T03:02:33.119Z,2.17
2019-04-30T03:05:05.296Z,2.55
2019-04-30T03:07:35.885Z,2.87
2019-04-30T03:10:10.008Z,2.83
2019-04-30T03:12:40.573Z,2.53
2019-04-30T03:15:11.831Z,2.67
2019-04-30T03:18:00.745Z,2.73
2019-04-30T03:20:56.118Z,2.35
2019-04-30T03:23:29.200Z,2.40
2019-04-30T03:25:59.841Z,2.53
2019-04-30T03:28:30.646Z,2.80
2019-04-30T03:31:04.369Z,2.50
2019-04-30T03:33:33.659Z,2.60
2019-04-30T03:36:04.207Z,2.83
2019-04-30T03:38:34.805Z,2.70
2019-04-30T03:41:05.363Z,2.70
2019-04-30T03:43:36.034Z,2.83
2019-04-30T03:46:06.545Z,2.43
2019-04-30T03:48:39.462Z,2.73
2019-04-30T03:51:10.638Z,2.80
2019-04-30T03:53:42.767Z,2.80
2019-04-30T03:56:13.482Z,2.80
2019-04-30T03:58:44.133Z,2.87
2019-04-30T04:01:24.443Z,2.37
2019-04-30T04:04:32.113Z,3.17
2019-04-30T04:07:24.379Z,2.90
2019-04-30T04:10:01.926Z,2.83
2019-04-30T04:12:32.473Z,2.63
2019-04-30T04:15:04.161Z,3.00
2019-04-30T04:17:35.091Z,3.00
2019-04-30T04:20:06.028Z,2.80
2019-04-30T04:22:36.837Z,3.07
2019-04-30T04:25:12.787Z,2.80
2019-04-30T04:27:40.088Z,2.80
2019-04-30T04:30:11.422Z,2.60
2019-04-30T04:32:42.113Z,2.87
2019-04-30T04:35:13.155Z,2.77
2019-04-30T04:37:43.758Z,2.47
2019-04-30T04:40:14.461Z,2.83
2019-04-30T04:42:45.000Z,3.22
2019-04-30T04:45:15.584Z,2.90
2019-04-30T04:47:46.186Z,3.10
2019-04-30T04:50:17.079Z,2.87
2019-04-30T04:52:49.542Z,2.97
2019-04-30T04:55:22.343Z,3.05
2019-04-30T04:57:53.039Z,3.40
2019-04-30T05:00:23.922Z,3.30
2019-04-30T05:03:09.746Z,3.23
2019-04-30T05:05:40.384Z,3.15
2019-04-30T05:08:10.992Z,2.80
2019-04-30T05:10:43.099Z,3.47
2019-04-30T05:13:14.717Z,2.87
2019-04-30T05:15:45.381Z,3.10
2019-04-30T05:18:15.911Z,3.15
2019-04-30T05:20:46.471Z,3.20
2019-04-30T05:23:17.094Z,2.92
2019-04-30T05:25:49.090Z,3.42
2019-04-30T05:28:21.664Z,3.10
2019-04-30T05:30:52.208Z,3.45
2019-04-30T05:33:22.902Z,3.17
2019-04-30T05:35:54.541Z,3.10
2019-04-30T05:38:25.070Z,2.85
2019-04-30T05:40:55.619Z,3.25
2019-04-30T05:43:26.287Z,3.00
2019-04-30T05:45:58.550Z,2.98
2019-04-30T05:48:29.252Z,3.20
2019-04-30T05:50:59.904Z,2.42
2019-04-30T05:53:30.458Z,2.90
2019-04-30T05:56:03.320Z,2.95
2019-04-30T05:58:35.852Z,3.17
2019-04-30T06:01:06.449Z,2.75
2019-04-30T06:03:38.599Z,2.87
2019-04-30T06:06:11.526Z,3.10
2019-04-30T06:08:50.785Z,2.70
2019-04-30T06:11:39.372Z,3.25
2019-04-30T06:14:24.336Z,3.00
2019-04-30T06:17:12.250Z,2.98
2019-04-30T06:19:42.903Z,2.67
2019-04-30T06:22:13.595Z,3.20
2019-04-30T06:24:45.458Z,2.80
2019-04-30T06:27:16.187Z,2.85
2019-04-30T06:29:48.835Z,2.67
2019-04-30T06:32:19.846Z,2.63
2019-04-30T06:34:51.173Z,2.33
2019-04-30T06:37:22.039Z,2.45
2019-04-30T06:39:52.714Z,2.55
2019-04-30T06:42:23.661Z,2.72
2019-04-30T06:44:54.701Z,2.45
2019-04-30T06:47:33.058Z,2.42
2019-04-30T06:50:01.273Z,2.65
2019-04-30T06:52:31.206Z,2.25
2019-04-30T06:55:01.743Z,2.67
2019-04-30T06:57:32.351Z,2.80
2019-04-30T07:00:03.145Z,2.15
2019-04-30T07:02:33.764Z,2.20
2019-04-30T07:05:04.562Z,2.55
2019-04-30T07:07:39.164Z,2.55
2019-04-30T07:10:29.482Z,1.98
2019-04-30T07:13:21.884Z,2.42
2019-04-30T07:15:52.456Z,2.50
2019-04-30T07:18:23.037Z,2.02
2019-04-30T07:20:53.560Z,2.10
2019-04-30T07:23:24.113Z,1.95
2019-04-30T07:25:54.640Z,2.47
2019-04-30T07:28:41.259Z,2.47
2019-04-30T07:31:08.703Z,2.70
2019-04-30T07:33:29.876Z,2.15
2019-04-30T07:36:01.807Z,2.33
2019-04-30T07:38:35.776Z,2.30
2019-04-30T07:41:05.932Z,2.40
2019-04-30T07:43:39.048Z,2.55
2019-04-30T07:46:09.581Z,2.35
2019-04-30T07:48:40.430Z,2.30
2019-04-30T07:51:11.683Z,2.55
2019-04-30T07:53:42.489Z,2.67
2019-04-30T07:56:24.357Z,2.52
2019-04-30T07:58:46.533Z,2.58
2019-04-30T08:01:19.383Z,2.45
2019-04-30T08:04:20.406Z,2.12
2019-04-30T08:06:52.530Z,2.30
2019-04-30T08:09:23.108Z,1.98
2019-04-30T08:11:53.680Z,2.08
2019-04-30T08:14:24.664Z,2.25
2019-04-30T08:16:55.374Z,2.30
2019-04-30T08:19:25.959Z,2.35
2019-04-30T08:21:58.491Z,1.95
2019-04-30T08:24:29.250Z,2.40
2019-04-30T08:27:01.291Z,2.50
2019-04-30T08:29:31.938Z,2.27
2019-04-30T08:32:02.498Z,2.12
2019-04-30T08:34:36.329Z,2.33
2019-04-30T08:37:16.680Z,2.70
2019-04-30T08:39:39.745Z,2.50
2019-04-30T08:42:10.532Z,2.40
2019-04-30T08:44:41.081Z,2.45
2019-04-30T08:47:11.685Z,2.42
2019-04-30T08:49:42.399Z,2.77
2019-04-30T08:52:13.060Z,2.70
2019-04-30T08:54:43.644Z,2.35
2019-04-30T08:57:14.181Z,2.85
2019-04-30T08:59:44.737Z,2.70
2019-04-30T09:02:16.538Z,2.27
2019-04-30T09:04:49.556Z,2.50
2019-04-30T09:07:20.104Z,2.55
2019-04-30T09:09:51.862Z,2.67
2019-04-30T09:12:22.463Z,2.20
2019-04-30T09:14:53.046Z,2.67
2019-04-30T09:17:23.554Z,2.90
2019-04-30T09:19:54.113Z,2.83
2019-04-30T09:22:24.663Z,2.55
2019-04-30T09:24:55.228Z,2.77
2019-04-30T09:27:25.748Z,2.60
2019-04-30T09:29:56.352Z,2.60
2019-04-30T09:32:28.980Z,2.72
2019-04-30T09:34:59.187Z,2.87
2019-04-30T09:37:30.608Z,2.70
2019-04-30T09:40:02.449Z,2.60
2019-04-30T09:42:34.451Z,3.15
2019-04-30T09:45:05.625Z,3.35
2019-04-30T09:47:36.261Z,3.60
2019-04-30T09:50:09.170Z,2.95
2019-04-30T09:52:40.405Z,2.87
2019-04-30T09:55:11.385Z,2.72
2019-04-30T09:57:42.278Z,3.02
2019-04-30T10:00:14.899Z,3.00
2019-04-30T10:02:45.498Z,3.95
2019-04-30T10:05:18.242Z,3.47
2019-04-30T10:07:49.389Z,2.98
2019-04-30T10:10:25.332Z,2.95
2019-04-30T10:12:55.857Z,3.45
2019-04-30T10:15:50.033Z,2.85
2019-04-30T10:18:20.398Z,2.92
2019-04-30T10:20:50.950Z,3.30
2019-04-30T10:23:21.509Z,3.50
2019-04-30T10:25:52.218Z,3.10
2019-04-30T10:28:24.157Z,3.45
2019-04-30T10:30:54.823Z,3.10
2019-04-30T10:33:25.429Z,3.42
2019-04-30T10:35:56.118Z,3.15
2019-04-30T10:38:27.046Z,3.40
2019-04-30T10:40:58.841Z,3.62
2019-04-30T10:43:31.920Z,3.60
2019-04-30T10:46:01.749Z,3.52
2019-04-30T10:48:32.488Z,3.35
2019-04-30T10:51:03.040Z,3.62
2019-04-30T10:53:33.603Z,3.25
2019-04-30T10:56:04.208Z,3.02
2019-04-30T10:58:34.826Z,3.33
2019-04-30T11:01:05.771Z,3.33
2019-04-30T11:03:36.399Z,3.62
2019-04-30T11:06:08.672Z,3.75
2019-04-30T11:08:39.266Z,3.60
2019-04-30T11:11:09.995Z,3.95
2019-04-30T11:13:40.692Z,3.77
2019-04-30T11:16:13.205Z,3.75
2019-04-30T11:18:43.690Z,3.90
2019-04-30T11:21:14.612Z,3.70
2019-04-30T11:23:45.552Z,3.67
2019-04-30T11:26:16.840Z,4.05
2019-04-30T11:28:47.753Z,3.65
2019-04-30T11:31:40.096Z,3.58
2019-04-30T11:34:10.764Z,3.72
2019-04-30T11:36:41.464Z,4.08
2019-04-30T11:39:18.610Z,4.20
2019-04-30T11:41:49.651Z,3.50
2019-04-30T11:44:30.271Z,4.05
2019-04-30T11:47:33.140Z,4.45
2019-04-30T11:50:06.469Z,3.77
2019-04-30T11:52:37.219Z,3.95
2019-04-30T11:55:09.982Z,3.98
2019-04-30T11:57:41.068Z,3.45
2019-04-30T12:00:18.767Z,3.12
2019-04-30T12:02:52.826Z,3.90
2019-04-30T12:05:22.397Z,4.37
2019-04-30T12:08:16.412Z,3.52
2019-04-30T12:11:06.122Z,3.75
2019-04-30T12:13:36.703Z,3.67
2019-04-30T12:16:09.180Z,3.85
2019-04-30T12:18:39.891Z,3.77
2019-04-30T12:21:10.469Z,2.92
2019-04-30T12:23:42.205Z,3.40
2019-04-30T12:26:12.824Z,4.22
2019-04-30T12:28:45.203Z,3.40
2019-04-30T12:31:15.826Z,3.45
2019-04-30T12:33:46.432Z,4.00
2019-04-30T12:36:18.818Z,3.30
2019-04-30T12:38:49.375Z,3.50
2019-04-30T12:41:19.886Z,4.03
2019-04-30T12:43:50.580Z,3.55
2019-04-30T12:46:21.374Z,3.90
2019-04-30T12:49:03.868Z,3.30
2019-04-30T12:51:51.991Z,3.98
2019-04-30T12:54:40.214Z,3.70
2019-04-30T12:57:29.718Z,3.08
2019-04-30T13:00:00.613Z,3.25
2019-04-30T13:02:31.264Z,3.67
2019-04-30T13:05:01.861Z,3.52
2019-04-30T13:07:33.090Z,3.90
2019-04-30T13:10:05.075Z,3.33
2019-04-30T13:12:36.632Z,3.72
2019-04-30T13:15:09.780Z,3.20
2019-04-30T13:17:40.314Z,3.20
2019-04-30T13:20:18.587Z,3.45
2019-04-30T13:22:44.366Z,3.58
2019-04-30T13:25:27.508Z,4.47
2019-04-30T13:27:51.349Z,5.62
2019-04-30T13:30:24.496Z,4.03
2019-04-30T13:33:12.143Z,3.02
2019-04-30T13:35:42.892Z,2.95
2019-04-30T13:38:28.183Z,3.15
2019-04-30T13:41:32.841Z,2.72
2019-04-30T13:44:05.123Z,3.27
2019-04-30T13:46:35.787Z,3.17
2019-04-30T13:49:06.770Z,2.72
2019-04-30T13:51:37.535Z,3.08
2019-04-30T13:54:09.551Z,2.45
2019-04-30T13:56:40.215Z,3.00
2019-04-30T13:59:12.181Z,3.00
2019-04-30T14:01:44.518Z,2.75
2019-04-30T14:04:24.968Z,3.42
2019-04-30T14:07:20.467Z,2.65
2019-04-30T14:09:52.504Z,2.37
2019-04-30T14:12:23.195Z,2.70
2019-04-30T14:14:53.764Z,2.50
2019-04-30T14:17:24.317Z,2.75
2019-04-30T14:19:54.987Z,2.92
2019-04-30T14:22:25.504Z,2.47
2019-04-30T14:24:56.096Z,2.30
2019-04-30T14:27:26.849Z,2.33
2019-04-30T14:29:59.230Z,2.20
2019-04-30T14:32:29.967Z,2.17
2019-04-30T14:35:00.527Z,2.60
2019-04-30T14:37:31.863Z,2.50
2019-04-30T14:40:03.350Z,2.25
2019-04-30T14:42:36.866Z,2.50
2019-04-30T14:45:18.520Z,2.35
2019-04-30T14:48:23.148Z,2.05
2019-04-30T14:50:52.733Z,2.35
2019-04-30T14:53:58.874Z,1.90
2019-04-30T14:56:36.329Z,2.17
2019-04-30T14:59:24.469Z,2.08
2019-04-30T15:02:11.284Z,2.47
2019-04-30T15:04:42.940Z,2.35
2019-04-30T15:07:13.560Z,2.20
2019-04-30T15:09:44.100Z,1.92
2019-04-30T15:12:16.132Z,2.10
2019-04-30T15:14:46.789Z,2.12
2019-04-30T15:17:17.775Z,2.70
2019-04-30T15:19:49.338Z,2.30
2019-04-30T15:22:21.210Z,2.45
2019-04-30T15:24:53.336Z,2.42
2019-04-30T15:27:24.041Z,3.27
2019-04-30T15:29:57.021Z,3.67
2019-04-30T15:32:28.578Z,2.47
2019-04-30T15:34:59.277Z,2.70
2019-04-30T15:37:29.847Z,2.47
2019-04-30T15:40:00.510Z,2.70
2019-04-30T15:42:31.092Z,3.17
2019-04-30T15:45:01.598Z,2.02
2019-04-30T15:47:32.163Z,2.70
2019-04-30T15:50:03.703Z,2.72
2019-04-30T15:52:34.456Z,3.12
2019-04-30T15:55:05.590Z,2.95
2019-04-30T15:57:53.267Z,2.77
2019-04-30T16:00:24.632Z,3.00
2019-04-30T16:03:09.740Z,2.35
2019-04-30T16:05:42.875Z,2.30
2019-04-30T16:08:39.023Z,2.40
2019-04-30T16:11:19.533Z,3.40
2019-04-30T16:14:14.948Z,2.50
2019-04-30T16:16:50.535Z,2.70
2019-04-30T16:19:21.226Z,2.90
2019-04-30T16:21:51.887Z,2.83
2019-04-30T16:24:22.488Z,2.37
2019-04-30T16:26:53.149Z,3.12
2019-04-30T16:29:23.718Z,3.92
2019-04-30T16:31:54.477Z,3.12
2019-04-30T16:34:25.060Z,3.55
2019-04-30T16:36:55.603Z,3.30
2019-04-30T16:39:26.220Z,2.83
2019-04-30T16:41:56.767Z,2.60
2019-04-30T16:44:29.144Z,2.52
2019-04-30T16:47:03.365Z,2.77
2019-04-30T16:49:33.203Z,2.72
2019-04-30T16:52:05.726Z,2.60
2019-04-30T16:54:36.419Z,3.25
2019-04-30T16:57:07.129Z,3.00
2019-04-30T16:59:41.525Z,3.58
2019-04-30T17:02:13.263Z,4.60
2019-04-30T17:05:04.127Z,3.90
2019-04-30T17:07:59.246Z,3.85
2019-04-30T17:10:52.398Z,4.15
2019-04-30T17:13:32.424Z,3.85
2019-04-30T17:16:15.196Z,4.55
2019-04-30T17:18:45.768Z,4.78
2019-04-30T17:21:16.417Z,4.10
2019-04-30T17:23:50.658Z,4.25
2019-04-30T17:26:20.331Z,5.08
2019-04-30T17:28:50.987Z,5.75
2019-04-30T17:31:21.611Z,6.17
2019-04-30T17:33:52.108Z,5.67
2019-04-30T17:36:22.644Z,5.12
2019-04-30T17:38:53.196Z,5.00
2019-04-30T17:41:25.227Z,5.47
2019-04-30T17:43:55.848Z,9.30
2019-04-30T17:46:28.594Z,6.60
2019-04-30T17:48:59.354Z,6.55
2019-04-30T17:51:29.929Z,5.83
2019-04-30T17:54:15.922Z,5.08
2019-04-30T17:56:47.416Z,3.98
2019-04-30T17:59:17.950Z,3.33
2019-04-30T18:01:54.352Z,3.00
2019-04-30T18:04:25.092Z,3.05
2019-04-30T18:06:55.606Z,2.87
2019-04-30T18:09:29.073Z,3.33
2019-04-30T18:11:59.614Z,2.65
2019-04-30T18:14:30.359Z,3.02
2019-04-30T18:17:01.017Z,3.25
2019-04-30T18:19:38.612Z,2.80
2019-04-30T18:22:14.226Z,2.30
2019-04-30T18:24:56.796Z,2.33
2019-04-30T18:27:51.988Z,2.37
2019-04-30T18:30:25.901Z,2.90
2019-04-30T18:32:58.399Z,2.80
2019-04-30T18:35:28.906Z,2.62
2019-04-30T18:38:00.676Z,2.65
2019-04-30T18:40:31.373Z,3.00
2019-04-30T18:43:03.346Z,2.83
2019-04-30T18:45:34.067Z,3.22
2019-04-30T18:48:04.595Z,3.20
2019-04-30T18:50:35.236Z,3.05
2019-04-30T18:53:11.713Z,2.80
2019-04-30T18:55:43.490Z,2.77
2019-04-30T18:58:14.197Z,2.60
2019-04-30T19:00:45.677Z,2.47
2019-04-30T19:03:19.135Z,2.22
2019-04-30T19:05:52.996Z,2.47
2019-04-30T19:08:30.471Z,2.70
2019-04-30T19:11:09.455Z,2.58
2019-04-30T19:13:59.651Z,3.00
2019-04-30T19:16:49.590Z,2.67
2019-04-30T19:19:45.361Z,2.80
2019-04-30T19:22:16.106Z,3.27
2019-04-30T19:24:55.686Z,3.60
2019-04-30T19:27:19.274Z,4.10
2019-04-30T19:29:51.717Z,4.53
2019-04-30T19:32:22.189Z,5.53
2019-04-30T19:34:52.752Z,5.42
2019-04-30T19:37:23.347Z,6.05
2019-04-30T19:39:55.098Z,6.92
2019-04-30T19:42:25.923Z,6.30
2019-04-30T19:45:08.338Z,6.65
2019-04-30T19:47:30.770Z,6.22
2019-04-30T19:50:02.597Z,5.92
2019-04-30T19:52:33.312Z,5.60
2019-04-30T19:55:04.085Z,5.40
2019-04-30T19:57:34.642Z,5.62
2019-04-30T20:00:06.687Z,5.45
2019-04-30T20:02:39.114Z,4.95
2019-04-30T20:05:10.144Z,5.67
2019-04-30T20:07:41.033Z,5.08
2019-04-30T20:10:12.212Z,5.78
2019-04-30T20:12:42.783Z,5.08
2019-04-30T20:15:19.338Z,4.90
2019-04-30T20:17:47.524Z,5.45
2019-04-30T20:20:18.884Z,5.20
2019-04-30T20:22:51.886Z,5.37
2019-04-30T20:25:21.860Z,4.92
2019-04-30T20:27:52.568Z,5.08
2019-04-30T20:30:23.163Z,4.93
2019-04-30T20:32:53.840Z,4.72
2019-04-30T20:35:24.385Z,4.87
2019-04-30T20:38:32.351Z,5.10
2019-04-30T20:41:04.624Z,4.97
2019-04-30T20:43:35.247Z,5.50
2019-04-30T20:46:05.916Z,6.60
2019-04-30T20:48:39.295Z,8.68
2019-04-30T20:51:10.322Z,8.30
2019-04-30T20:53:41.110Z,8.50
2019-04-30T20:56:11.603Z,7.55
2019-04-30T20:58:54.853Z,7.90
2019-04-30T21:01:14.497Z,7.47
2019-04-30T21:03:47.556Z,8.55
2019-04-30T21:06:19.773Z,8.53
2019-04-30T21:08:50.669Z,8.08
2019-04-30T21:11:21.282Z,8.10
2019-04-30T21:13:51.912Z,6.10
2019-04-30T21:16:22.524Z,6.67
2019-04-30T21:18:53.194Z,6.25
2019-04-30T21:21:23.746Z,6.83
2019-04-30T21:23:54.314Z,6.35
2019-04-30T21:26:24.840Z,6.15
2019-04-30T21:28:58.041Z,6.67
2019-04-30T21:31:46.624Z,6.62
2019-04-30T21:34:40.823Z,7.28
2019-04-30T21:37:11.355Z,7.35
2019-04-30T21:39:42.017Z,8.28
2019-04-30T21:42:12.576Z,8.18
2019-04-30T21:44:43.298Z,8.35
2019-04-30T21:47:13.965Z,9.15
2019-04-30T21:49:44.553Z,8.58
2019-04-30T21:52:15.093Z,8.83
2019-04-30T21:54:45.697Z,8.93
2019-04-30T21:57:17.432Z,9.13
2019-04-30T21:59:48.754Z,9.98
2019-04-30T22:02:19.449Z,10.05
2019-04-30T22:04:51.489Z,9.75
2019-04-30T22:07:22.024Z,10.75
2019-04-30T22:09:52.586Z,11.30
2019-04-30T22:12:23.236Z,10.23
2019-04-30T22:14:53.780Z,11.35
2019-04-30T22:17:24.319Z,11.25
2019-04-30T22:19:56.072Z,10.72
2019-04-30T22:22:26.577Z,9.80
2019-04-30T22:24:57.136Z,9.33
2019-04-30T22:27:27.684Z,8.60
2019-04-30T22:29:58.230Z,8.83
2019-04-30T22:32:30.608Z,9.43
2019-04-30T22:35:20.093Z,8.63
2019-04-30T22:37:53.494Z,8.25
2019-04-30T22:40:24.066Z,7.70
2019-04-30T22:42:54.644Z,8.00
2019-04-30T22:45:33.219Z,8.77
2019-04-30T22:48:03.740Z,8.27
2019-04-30T22:50:34.341Z,8.18
2019-04-30T22:53:04.960Z,8.50
2019-04-30T22:55:35.503Z,9.08
2019-04-30T22:58:06.333Z,8.18
2019-04-30T23:00:42.997Z,8.55
2019-04-30T23:03:17.200Z,9.18
2019-04-30T23:05:48.000Z,8.43
2019-04-30T23:08:18.632Z,7.42
2019-04-30T23:10:50.371Z,9.33
2019-04-30T23:13:20.980Z,9.50
2019-04-30T23:15:55.448Z,9.13
2019-04-30T23:18:26.087Z,9.77
2019-04-30T23:20:56.625Z,8.65
2019-04-30T23:23:27.146Z,9.70
2019-04-30T23:25:57.706Z,9.40
2019-04-30T23:28:28.405Z,9.65
2019-04-30T23:31:00.161Z,10.30
2019-04-30T23:33:31.137Z,9.95
2019-04-30T23:36:01.660Z,10.58
2019-04-30T23:38:32.109Z,10.43
2019-04-30T23:41:02.611Z,9.93
2019-04-30T23:43:33.203Z,9.98
2019-04-30T23:46:03.753Z,11.00
2019-04-30T23:48:34.287Z,10.82
2019-04-30T23:51:04.848Z,10.00
2019-04-30T23:53:35.445Z,11.13
2019-04-30T23:56:06.119Z,10.28
2019-04-30T23:58:36.618Z,10.03
